sensor_id;sensor_type;location;lat;lon;timestamp;pressure;altitude;pressure_sealevel;temperature;humidity
16595;BME280;8410;52.532;13.336;2023-12-14T00:00:34;100129.75;;;8.43;85.71
16595;BME280;8410;52.532;13.336;2023-12-14T00:03:02;100124.66;;;9.39;82.20
16595;BME280;8410;52.532;13.336;2023-12-14T00:05:30;100126.84;;;8.93;81.11
16595;BME280;8410;52.532;13.336;2023-12-14T00:07:58;100134.66;;;9.05;83.96
16595;BME280;8410;52.532;13.336;2023-12-14T00:10:26;100133.91;;;9.17;80.81
16595;BME280;8410;52.532;13.336;2023-12-14T00:12:53;100147.00;;;8.56;83.91
16595;BME280;8410;52.532;13.336;2023-12-14T00:15:22;100150.97;;;9.14;82.74
16595;BME280;8410;52.532;13.336;2023-12-14T00:17:49;100152.38;;;8.81;81.50
16595;BME280;8410;52.532;13.336;2023-12-14T00:20:18;100158.75;;;9.20;80.48
16595;BME280;8410;52.532;13.336;2023-12-14T00:22:47;100162.59;;;8.75;83.92
16595;BME280;8410;52.532;13.336;2023-12-14T00:25:15;100165.16;;;9.74;80.09
16595;BME280;8410;52.532;13.336;2023-12-14T00:27:45;100169.50;;;8.80;82.86
16595;BME280;8410;52.532;13.336;2023-12-14T00:30:13;100175.63;;;8.93;81.30
16595;BME280;8410;52.532;13.336;2023-12-14T00:32:40;100171.31;;;10.02;80.95
16595;BME280;8410;52.532;13.336;2023-12-14T00:35:08;100176.47;;;10.07;78.74
16595;BME280;8410;52.532;13.336;2023-12-14T00:37:36;100181.31;;;9.58;80.90
16595;BME280;8410;52.532;13.336;2023-12-14T00:40:06;100183.97;;;9.70;80.96
16595;BME280;8410;52.532;13.336;2023-12-14T00:42:36;100191.25;;;9.18;82.99
16595;BME280;8410;52.532;13.336;2023-12-14T00:45:04;100196.84;;;8.77;82.83
16595;BME280;8410;52.532;13.336;2023-12-14T00:47:32;100187.25;;;9.50;79.89
16595;BME280;8410;52.532;13.336;2023-12-14T00:50:02;100192.34;;;9.46;81.13
16595;BME280;8410;52.532;13.336;2023-12-14T00:52:31;100211.06;;;8.52;81.83
16595;BME280;8410;52.532;13.336;2023-12-14T00:54:59;100205.53;;;8.88;82.34
16595;BME280;8410;52.532;13.336;2023-12-14T00:57:28;100207.34;;;8.98;82.04
16595;BME280;8410;52.532;13.336;2023-12-14T00:59:55;100209.75;;;9.81;79.86
16595;BME280;8410;52.532;13.336;2023-12-14T01:02:23;100218.81;;;9.37;78.71
16595;BME280;8410;52.532;13.336;2023-12-14T01:04:51;100228.66;;;8.24;81.35
16595;BME280;8410;52.532;13.336;2023-12-14T01:07:18;100237.63;;;8.54;82.75
16595;BME280;8410;52.532;13.336;2023-12-14T01:09:46;100233.75;;;8.23;84.11
16595;BME280;8410;52.532;13.336;2023-12-14T01:12:14;100243.41;;;8.39;83.73
16595;BME280;8410;52.532;13.336;2023-12-14T01:14:43;100237.09;;;8.79;83.70
16595;BME280;8410;52.532;13.336;2023-12-14T01:17:10;100248.00;;;8.65;80.85
16595;BME280;8410;52.532;13.336;2023-12-14T01:19:39;100259.59;;;7.80;83.89
16595;BME280;8410;52.532;13.336;2023-12-14T01:22:07;100260.81;;;7.49;86.14
16595;BME280;8410;52.532;13.336;2023-12-14T01:24:34;100253.47;;;8.92;82.77
16595;BME280;8410;52.532;13.336;2023-12-14T01:27:02;100263.34;;;8.58;80.98
16595;BME280;8410;52.532;13.336;2023-12-14T01:29:30;100271.44;;;8.28;81.92
16595;BME280;8410;52.532;13.336;2023-12-14T01:31:57;100261.50;;;8.48;83.21
16595;BME280;8410;52.532;13.336;2023-12-14T01:34:25;100270.75;;;9.09;79.80
16595;BME280;8410;52.532;13.336;2023-12-14T01:36:53;100283.44;;;8.31;83.39
16595;BME280;8410;52.532;13.336;2023-12-14T01:39:20;100282.06;;;7.95;83.74
16595;BME280;8410;52.532;13.336;2023-12-14T01:41:48;100286.78;;;8.24;82.72
16595;BME280;8410;52.532;13.336;2023-12-14T01:44:16;100288.38;;;8.15;82.98
16595;BME280;8410;52.532;13.336;2023-12-14T01:46:43;100277.94;;;8.64;82.02
16595;BME280;8410;52.532;13.336;2023-12-14T01:49:12;100284.41;;;9.03;78.91
16595;BME280;8410;52.532;13.336;2023-12-14T01:51:40;100286.44;;;9.33;77.80
16595;BME280;8410;52.532;13.336;2023-12-14T01:54:07;100292.34;;;8.54;80.75
16595;BME280;8410;52.532;13.336;2023-12-14T01:56:35;100292.56;;;8.10;80.12
16595;BME280;8410;52.532;13.336;2023-12-14T01:59:02;100301.44;;;8.32;82.63
16595;BME280;8410;52.532;13.336;2023-12-14T02:01:36;100302.94;;;8.77;80.92
16595;BME280;8410;52.532;13.336;2023-12-14T02:04:06;100305.25;;;8.04;82.86
16595;BME280;8410;52.532;13.336;2023-12-14T02:06:35;100305.59;;;8.26;81.26
16595;BME280;8410;52.532;13.336;2023-12-14T02:09:03;100310.09;;;8.39;81.04
16595;BME280;8410;52.532;13.336;2023-12-14T02:11:31;100302.13;;;7.69;82.14
16595;BME280;8410;52.532;13.336;2023-12-14T02:14:03;100312.50;;;8.30;83.26
16595;BME280;8410;52.532;13.336;2023-12-14T02:16:31;100321.34;;;7.45;83.72
16595;BME280;8410;52.532;13.336;2023-12-14T02:18:59;100313.31;;;7.72;84.51
16595;BME280;8410;52.532;13.336;2023-12-14T02:21:27;100315.28;;;7.89;82.20
16595;BME280;8410;52.532;13.336;2023-12-14T02:23:56;100318.44;;;7.72;83.08
16595;BME280;8410;52.532;13.336;2023-12-14T02:26:23;100320.16;;;7.73;83.91
16595;BME280;8410;52.532;13.336;2023-12-14T02:28:51;100324.13;;;6.70;86.21
16595;BME280;8410;52.532;13.336;2023-12-14T02:31:19;100329.53;;;7.24;86.37
16595;BME280;8410;52.532;13.336;2023-12-14T02:33:46;100321.63;;;8.12;84.77
16595;BME280;8410;52.532;13.336;2023-12-14T02:36:14;100319.97;;;8.74;81.42
16595;BME280;8410;52.532;13.336;2023-12-14T02:38:41;100337.28;;;7.78;84.62
16595;BME280;8410;52.532;13.336;2023-12-14T02:41:11;100330.66;;;7.89;83.75
16595;BME280;8410;52.532;13.336;2023-12-14T02:43:39;100329.66;;;8.34;83.26
16595;BME280;8410;52.532;13.336;2023-12-14T02:46:08;100333.72;;;7.69;84.99
16595;BME280;8410;52.532;13.336;2023-12-14T02:48:40;100338.72;;;8.12;84.10
16595;BME280;8410;52.532;13.336;2023-12-14T02:51:12;100340.22;;;7.99;84.48
16595;BME280;8410;52.532;13.336;2023-12-14T02:53:40;100326.09;;;8.26;81.47
16595;BME280;8410;52.532;13.336;2023-12-14T02:56:10;100340.56;;;8.77;79.90
16595;BME280;8410;52.532;13.336;2023-12-14T02:58:38;100340.84;;;8.98;78.83
16595;BME280;8410;52.532;13.336;2023-12-14T03:01:06;100337.69;;;9.21;78.06
16595;BME280;8410;52.532;13.336;2023-12-14T03:03:33;100347.34;;;9.42;78.65
16595;BME280;8410;52.532;13.336;2023-12-14T03:06:01;100353.69;;;8.39;79.21
16595;BME280;8410;52.532;13.336;2023-12-14T03:08:29;100360.50;;;8.37;80.06
16595;BME280;8410;52.532;13.336;2023-12-14T03:10:56;100362.63;;;8.64;82.04
16595;BME280;8410;52.532;13.336;2023-12-14T03:13:25;100362.81;;;8.78;79.55
16595;BME280;8410;52.532;13.336;2023-12-14T03:15:54;100369.28;;;8.51;79.82
16595;BME280;8410;52.532;13.336;2023-12-14T03:18:22;100378.22;;;7.74;81.27
16595;BME280;8410;52.532;13.336;2023-12-14T03:20:50;100376.63;;;8.30;83.93
16595;BME280;8410;52.532;13.336;2023-12-14T03:23:17;100389.53;;;8.34;79.52
16595;BME280;8410;52.532;13.336;2023-12-14T03:25:45;100385.44;;;7.94;83.89
16595;BME280;8410;52.532;13.336;2023-12-14T03:28:12;100380.03;;;8.85;80.72
16595;BME280;8410;52.532;13.336;2023-12-14T03:30:41;100379.84;;;8.73;79.77
16595;BME280;8410;52.532;13.336;2023-12-14T03:33:09;100387.28;;;8.04;81.17
16595;BME280;8410;52.532;13.336;2023-12-14T03:35:37;100382.97;;;8.50;81.23
16595;BME280;8410;52.532;13.336;2023-12-14T03:38:04;100403.75;;;7.68;82.06
16595;BME280;8410;52.532;13.336;2023-12-14T03:40:32;100404.09;;;7.87;82.33
16595;BME280;8410;52.532;13.336;2023-12-14T03:43:00;100403.44;;;7.99;81.15
16595;BME280;8410;52.532;13.336;2023-12-14T03:45:27;100390.34;;;8.88;79.29
16595;BME280;8410;52.532;13.336;2023-12-14T03:47:56;100395.63;;;9.00;78.49
16595;BME280;8410;52.532;13.336;2023-12-14T03:50:23;100402.59;;;8.50;79.29
16595;BME280;8410;52.532;13.336;2023-12-14T03:52:51;100413.47;;;8.35;80.92
16595;BME280;8410;52.532;13.336;2023-12-14T03:55:19;100422.31;;;8.52;79.22
16595;BME280;8410;52.532;13.336;2023-12-14T03:57:46;100420.88;;;8.70;80.34
16595;BME280;8410;52.532;13.336;2023-12-14T04:00:14;100428.22;;;9.04;77.80
16595;BME280;8410;52.532;13.336;2023-12-14T04:02:42;100436.84;;;8.52;77.71
16595;BME280;8410;52.532;13.336;2023-12-14T04:05:11;100444.00;;;8.23;81.44
16595;BME280;8410;52.532;13.336;2023-12-14T04:07:39;100449.19;;;8.26;79.87
16595;BME280;8410;52.532;13.336;2023-12-14T04:10:08;100436.13;;;9.20;80.22
16595;BME280;8410;52.532;13.336;2023-12-14T04:12:36;100446.19;;;8.48;78.46
16595;BME280;8410;52.532;13.336;2023-12-14T04:15:05;100445.50;;;8.60;79.47
16595;BME280;8410;52.532;13.336;2023-12-14T04:17:33;100449.53;;;8.43;80.26
16595;BME280;8410;52.532;13.336;2023-12-14T04:20:02;100452.03;;;8.39;79.02
16595;BME280;8410;52.532;13.336;2023-12-14T04:22:31;100459.56;;;7.85;82.05
16595;BME280;8410;52.532;13.336;2023-12-14T04:24:59;100467.47;;;7.94;81.87
16595;BME280;8410;52.532;13.336;2023-12-14T04:27:27;100462.81;;;8.22;81.34
16595;BME280;8410;52.532;13.336;2023-12-14T04:29:56;100469.06;;;8.37;79.89
16595;BME280;8410;52.532;13.336;2023-12-14T04:32:23;100468.09;;;8.29;81.72
16595;BME280;8410;52.532;13.336;2023-12-14T04:34:51;100469.03;;;8.36;80.75
16595;BME280;8410;52.532;13.336;2023-12-14T04:37:18;100463.94;;;8.89;79.29
16595;BME280;8410;52.532;13.336;2023-12-14T04:39:47;100468.69;;;8.65;79.38
16595;BME280;8410;52.532;13.336;2023-12-14T04:42:15;100464.78;;;8.88;79.80
16595;BME280;8410;52.532;13.336;2023-12-14T04:44:42;100473.09;;;8.73;80.01
16595;BME280;8410;52.532;13.336;2023-12-14T04:47:10;100468.69;;;8.65;79.25
16595;BME280;8410;52.532;13.336;2023-12-14T04:49:37;100475.97;;;8.93;78.52
16595;BME280;8410;52.532;13.336;2023-12-14T04:52:05;100474.63;;;9.17;79.62
16595;BME280;8410;52.532;13.336;2023-12-14T04:54:34;100474.78;;;9.32;77.91
16595;BME280;8410;52.532;13.336;2023-12-14T04:57:05;100486.22;;;8.90;78.59
16595;BME280;8410;52.532;13.336;2023-12-14T04:59:33;100501.38;;;7.81;81.02
16595;BME280;8410;52.532;13.336;2023-12-14T05:02:00;100503.81;;;7.34;82.41
16595;BME280;8410;52.532;13.336;2023-12-14T05:04:28;100505.63;;;8.26;82.21
16595;BME280;8410;52.532;13.336;2023-12-14T05:06:56;100502.47;;;8.39;80.78
16595;BME280;8410;52.532;13.336;2023-12-14T05:09:23;100500.59;;;9.38;77.19
16595;BME280;8410;52.532;13.336;2023-12-14T05:11:51;100510.97;;;8.88;78.58
16595;BME280;8410;52.532;13.336;2023-12-14T05:14:20;100516.81;;;8.78;78.00
16595;BME280;8410;52.532;13.336;2023-12-14T05:16:48;100520.28;;;8.80;79.58
16595;BME280;8410;52.532;13.336;2023-12-14T05:19:15;100513.56;;;9.49;78.71
16595;BME280;8410;52.532;13.336;2023-12-14T05:21:43;100523.25;;;9.70;76.21
16595;BME280;8410;52.532;13.336;2023-12-14T05:24:10;100536.94;;;8.53;79.17
16595;BME280;8410;52.532;13.336;2023-12-14T05:26:38;100545.91;;;8.31;80.10
16595;BME280;8410;52.532;13.336;2023-12-14T05:29:05;100556.38;;;7.98;81.24
16595;BME280;8410;52.532;13.336;2023-12-14T05:31:34;100562.63;;;8.12;80.31
16595;BME280;8410;52.532;13.336;2023-12-14T05:34:02;100552.59;;;8.69;79.13
16595;BME280;8410;52.532;13.336;2023-12-14T05:36:29;100545.97;;;9.41;78.15
16595;BME280;8410;52.532;13.336;2023-12-14T05:38:57;100560.44;;;9.31;76.78
16595;BME280;8410;52.532;13.336;2023-12-14T05:41:25;100574.25;;;8.86;77.89
16595;BME280;8410;52.532;13.336;2023-12-14T05:43:52;100565.97;;;9.02;78.41
16595;BME280;8410;52.532;13.336;2023-12-14T05:46:21;100575.91;;;9.37;77.69
16595;BME280;8410;52.532;13.336;2023-12-14T05:48:50;100582.75;;;8.82;78.23
16595;BME280;8410;52.532;13.336;2023-12-14T05:51:27;100583.63;;;8.84;78.90
16595;BME280;8410;52.532;13.336;2023-12-14T05:53:55;100576.66;;;9.28;77.60
16595;BME280;8410;52.532;13.336;2023-12-14T05:56:23;100592.53;;;9.04;77.86
16595;BME280;8410;52.532;13.336;2023-12-14T05:58:51;100594.75;;;8.83;78.64
16595;BME280;8410;52.532;13.336;2023-12-14T06:01:18;100603.69;;;8.56;79.89
16595;BME280;8410;52.532;13.336;2023-12-14T06:03:46;100596.09;;;8.61;79.54
16595;BME280;8410;52.532;13.336;2023-12-14T06:06:16;100596.00;;;9.07;76.93
16595;BME280;8410;52.532;13.336;2023-12-14T06:08:43;100596.97;;;9.71;77.06
16595;BME280;8410;52.532;13.336;2023-12-14T06:11:11;100608.75;;;9.02;77.45
16595;BME280;8410;52.532;13.336;2023-12-14T06:13:38;100611.94;;;9.40;78.07
16595;BME280;8410;52.532;13.336;2023-12-14T06:16:06;100621.81;;;8.22;80.67
16595;BME280;8410;52.532;13.336;2023-12-14T06:18:39;100623.25;;;8.98;80.23
16595;BME280;8410;52.532;13.336;2023-12-14T06:21:07;100629.72;;;7.91;82.42
16595;BME280;8410;52.532;13.336;2023-12-14T06:23:37;100623.09;;;8.42;82.18
16595;BME280;8410;52.532;13.336;2023-12-14T06:26:04;100629.25;;;9.54;77.91
16595;BME280;8410;52.532;13.336;2023-12-14T06:28:32;100627.31;;;9.37;77.25
16595;BME280;8410;52.532;13.336;2023-12-14T06:31:00;100621.06;;;9.81;76.73
16595;BME280;8410;52.532;13.336;2023-12-14T06:33:28;100627.81;;;9.15;76.70
16595;BME280;8410;52.532;13.336;2023-12-14T06:35:56;100622.09;;;9.92;76.70
16595;BME280;8410;52.532;13.336;2023-12-14T06:38:24;100629.28;;;9.57;75.11
16595;BME280;8410;52.532;13.336;2023-12-14T06:40:52;100650.94;;;7.84;80.99
16595;BME280;8410;52.532;13.336;2023-12-14T06:43:20;100645.94;;;8.75;80.27
16595;BME280;8410;52.532;13.336;2023-12-14T06:45:48;100646.53;;;9.64;76.80
16595;BME280;8410;52.532;13.336;2023-12-14T06:48:15;100661.03;;;8.17;77.09
16595;BME280;8410;52.532;13.336;2023-12-14T06:50:43;100671.44;;;9.12;78.89
16595;BME280;8410;52.532;13.336;2023-12-14T06:53:14;100669.41;;;8.95;77.29
16595;BME280;8410;52.532;13.336;2023-12-14T06:55:42;100678.13;;;9.57;76.57
16595;BME280;8410;52.532;13.336;2023-12-14T06:58:11;100673.84;;;10.16;75.19
16595;BME280;8410;52.532;13.336;2023-12-14T07:00:38;100684.84;;;9.47;75.08
16595;BME280;8410;52.532;13.336;2023-12-14T07:03:06;100688.31;;;9.49;74.17
16595;BME280;8410;52.532;13.336;2023-12-14T07:05:34;100695.78;;;9.90;74.35
16595;BME280;8410;52.532;13.336;2023-12-14T07:08:03;100696.28;;;9.66;75.06
16595;BME280;8410;52.532;13.336;2023-12-14T07:10:30;100698.94;;;9.72;73.90
16595;BME280;8410;52.532;13.336;2023-12-14T07:12:58;100694.91;;;9.89;73.17
16595;BME280;8410;52.532;13.336;2023-12-14T07:15:27;100702.41;;;8.75;76.69
16595;BME280;8410;52.532;13.336;2023-12-14T07:17:55;100704.66;;;9.04;75.61
16595;BME280;8410;52.532;13.336;2023-12-14T07:20:23;100716.84;;;9.66;75.93
16595;BME280;8410;52.532;13.336;2023-12-14T07:22:51;100724.94;;;9.37;75.45
16595;BME280;8410;52.532;13.336;2023-12-14T07:25:19;100730.97;;;8.92;76.91
16595;BME280;8410;52.532;13.336;2023-12-14T07:27:46;100738.66;;;8.91;77.50
16595;BME280;8410;52.532;13.336;2023-12-14T07:30:14;100748.06;;;8.90;77.47
16595;BME280;8410;52.532;13.336;2023-12-14T07:32:43;100750.84;;;9.49;75.47
16595;BME280;8410;52.532;13.336;2023-12-14T07:35:10;100748.34;;;8.61;78.43
16595;BME280;8410;52.532;13.336;2023-12-14T07:37:38;100754.91;;;8.91;77.26
16595;BME280;8410;52.532;13.336;2023-12-14T07:40:06;100757.91;;;8.69;78.64
16595;BME280;8410;52.532;13.336;2023-12-14T07:42:34;100770.13;;;8.39;78.71
16595;BME280;8410;52.532;13.336;2023-12-14T07:45:02;100773.44;;;8.37;79.87
16595;BME280;8410;52.532;13.336;2023-12-14T07:47:30;100781.53;;;8.16;80.03
16595;BME280;8410;52.532;13.336;2023-12-14T07:49:59;100776.53;;;8.22;81.29
16595;BME280;8410;52.532;13.336;2023-12-14T07:52:27;100772.28;;;8.62;79.12
16595;BME280;8410;52.532;13.336;2023-12-14T07:54:55;100778.13;;;8.55;79.52
16595;BME280;8410;52.532;13.336;2023-12-14T07:57:22;100786.72;;;8.55;78.87
16595;BME280;8410;52.532;13.336;2023-12-14T07:59:50;100787.84;;;8.70;78.40
16595;BME280;8410;52.532;13.336;2023-12-14T08:02:17;100784.13;;;8.96;78.74
16595;BME280;8410;52.532;13.336;2023-12-14T08:04:45;100792.38;;;9.74;75.56
16595;BME280;8410;52.532;13.336;2023-12-14T08:07:14;100796.38;;;9.58;75.13
16595;BME280;8410;52.532;13.336;2023-12-14T08:09:41;100807.53;;;8.31;76.73
16595;BME280;8410;52.532;13.336;2023-12-14T08:12:09;100801.25;;;8.20;80.25
16595;BME280;8410;52.532;13.336;2023-12-14T08:14:36;100799.63;;;9.46;78.51
16595;BME280;8410;52.532;13.336;2023-12-14T08:17:07;100807.00;;;9.30;74.30
16595;BME280;8410;52.532;13.336;2023-12-14T08:19:35;100806.94;;;9.25;76.59
16595;BME280;8410;52.532;13.336;2023-12-14T08:22:02;100808.88;;;9.87;73.96
16595;BME280;8410;52.532;13.336;2023-12-14T08:24:31;100816.97;;;9.13;76.46
16595;BME280;8410;52.532;13.336;2023-12-14T08:26:59;100822.22;;;9.19;76.20
16595;BME280;8410;52.532;13.336;2023-12-14T08:29:26;100830.88;;;8.81;77.03
16595;BME280;8410;52.532;13.336;2023-12-14T08:31:54;100844.84;;;8.20;77.87
16595;BME280;8410;52.532;13.336;2023-12-14T08:34:23;100844.66;;;8.12;79.61
16595;BME280;8410;52.532;13.336;2023-12-14T08:36:51;100842.34;;;8.22;79.14
16595;BME280;8410;52.532;13.336;2023-12-14T08:39:19;100852.09;;;8.73;78.74
16595;BME280;8410;52.532;13.336;2023-12-14T08:41:48;100847.72;;;9.10;76.75
16595;BME280;8410;52.532;13.336;2023-12-14T08:44:15;100858.38;;;8.87;77.30
16595;BME280;8410;52.532;13.336;2023-12-14T08:46:45;100865.28;;;8.90;77.04
16595;BME280;8410;52.532;13.336;2023-12-14T08:49:13;100866.50;;;9.09;76.14
16595;BME280;8410;52.532;13.336;2023-12-14T08:51:41;100877.06;;;8.80;77.20
16595;BME280;8410;52.532;13.336;2023-12-14T08:54:09;100868.50;;;9.22;77.20
16595;BME280;8410;52.532;13.336;2023-12-14T08:56:37;100874.56;;;8.83;77.11
16595;BME280;8410;52.532;13.336;2023-12-14T08:59:06;100879.09;;;8.55;77.85
16595;BME280;8410;52.532;13.336;2023-12-14T09:01:34;100868.81;;;9.37;77.37
16595;BME280;8410;52.532;13.336;2023-12-14T09:04:01;100881.25;;;9.60;75.03
16595;BME280;8410;52.532;13.336;2023-12-14T09:06:29;100892.78;;;9.36;75.68
16595;BME280;8410;52.532;13.336;2023-12-14T09:08:57;100891.16;;;9.87;76.31
16595;BME280;8410;52.532;13.336;2023-12-14T09:11:24;100890.06;;;10.26;74.56
16595;BME280;8410;52.532;13.336;2023-12-14T09:17:34;100914.28;;;8.63;77.88
16595;BME280;8410;52.532;13.336;2023-12-14T09:20:04;100918.03;;;9.15;76.37
16595;BME280;8410;52.532;13.336;2023-12-14T09:22:32;100928.69;;;8.94;77.83
16595;BME280;8410;52.532;13.336;2023-12-14T09:25:00;100932.28;;;9.41;76.36
16595;BME280;8410;52.532;13.336;2023-12-14T09:27:27;100926.81;;;9.70;74.74
16595;BME280;8410;52.532;13.336;2023-12-14T09:29:55;100931.03;;;9.66;73.34
16595;BME280;8410;52.532;13.336;2023-12-14T09:32:23;100932.13;;;9.35;75.17
16595;BME280;8410;52.532;13.336;2023-12-14T09:34:52;100945.53;;;9.20;77.11
16595;BME280;8410;52.532;13.336;2023-12-14T09:37:22;100949.94;;;8.50;76.92
16595;BME280;8410;52.532;13.336;2023-12-14T09:39:50;100946.88;;;8.65;79.06
16595;BME280;8410;52.532;13.336;2023-12-14T09:42:20;100952.59;;;8.55;78.35
16595;BME280;8410;52.532;13.336;2023-12-14T09:44:48;100953.34;;;8.87;76.76
16595;BME280;8410;52.532;13.336;2023-12-14T09:47:16;100962.91;;;7.90;77.64
16595;BME280;8410;52.532;13.336;2023-12-14T09:49:44;100961.25;;;9.34;77.84
16595;BME280;8410;52.532;13.336;2023-12-14T09:52:13;100952.03;;;9.04;76.40
16595;BME280;8410;52.532;13.336;2023-12-14T09:54:41;100965.09;;;8.39;77.94
16595;BME280;8410;52.532;13.336;2023-12-14T09:57:09;100960.56;;;9.02;76.37
16595;BME280;8410;52.532;13.336;2023-12-14T09:59:37;100964.44;;;8.50;77.85
16595;BME280;8410;52.532;13.336;2023-12-14T10:02:09;100964.91;;;8.68;78.58
16595;BME280;8410;52.532;13.336;2023-12-14T10:04:37;100962.84;;;9.71;74.56
16595;BME280;8410;52.532;13.336;2023-12-14T10:07:04;100965.31;;;9.24;76.28
16595;BME280;8410;52.532;13.336;2023-12-14T10:09:37;100966.47;;;9.81;75.01
16595;BME280;8410;52.532;13.336;2023-12-14T10:12:07;100965.47;;;10.70;71.67
16595;BME280;8410;52.532;13.336;2023-12-14T10:14:36;100964.56;;;10.67;71.35
16595;BME280;8410;52.532;13.336;2023-12-14T10:17:14;100977.78;;;9.89;73.76
16595;BME280;8410;52.532;13.336;2023-12-14T10:19:43;100969.91;;;10.27;72.38
16595;BME280;8410;52.532;13.336;2023-12-14T10:22:11;100989.03;;;9.54;72.79
16595;BME280;8410;52.532;13.336;2023-12-14T10:24:42;100988.59;;;8.56;74.80
16595;BME280;8410;52.532;13.336;2023-12-14T10:27:10;100996.94;;;8.16;78.32
16595;BME280;8410;52.532;13.336;2023-12-14T10:29:38;100995.50;;;8.27;77.61
16595;BME280;8410;52.532;13.336;2023-12-14T10:32:07;100991.06;;;8.90;77.17
16595;BME280;8410;52.532;13.336;2023-12-14T10:34:38;100993.16;;;9.88;72.79
16595;BME280;8410;52.532;13.336;2023-12-14T10:37:06;101003.72;;;8.47;77.20
16595;BME280;8410;52.532;13.336;2023-12-14T10:39:34;101000.03;;;9.07;75.86
16595;BME280;8410;52.532;13.336;2023-12-14T10:42:05;101007.91;;;8.77;74.58
16595;BME280;8410;52.532;13.336;2023-12-14T10:44:45;101010.63;;;8.50;77.36
16595;BME280;8410;52.532;13.336;2023-12-14T10:47:37;101001.56;;;10.73;72.39
16595;BME280;8410;52.532;13.336;2023-12-14T10:50:08;101009.84;;;10.08;72.78
16595;BME280;8410;52.532;13.336;2023-12-14T10:52:38;101019.31;;;8.22;77.21
16595;BME280;8410;52.532;13.336;2023-12-14T10:55:09;101019.81;;;9.50;74.41
16595;BME280;8410;52.532;13.336;2023-12-14T10:57:39;101025.53;;;9.78;73.85
16595;BME280;8410;52.532;13.336;2023-12-14T11:00:10;101020.28;;;10.63;71.17
16595;BME280;8410;52.532;13.336;2023-12-14T11:02:41;101032.75;;;9.16;73.31
16595;BME280;8410;52.532;13.336;2023-12-14T11:05:13;101040.94;;;8.00;79.12
16595;BME280;8410;52.532;13.336;2023-12-14T11:07:43;101030.09;;;8.75;76.03
16595;BME280;8410;52.532;13.336;2023-12-14T11:10:10;101033.00;;;9.26;75.40
16595;BME280;8410;52.532;13.336;2023-12-14T11:12:50;101033.41;;;8.71;74.83
16595;BME280;8410;52.532;13.336;2023-12-14T11:15:18;101027.00;;;8.88;74.97
16595;BME280;8410;52.532;13.336;2023-12-14T11:20:50;101034.41;;;9.12;75.77
16595;BME280;8410;52.532;13.336;2023-12-14T11:23:27;101040.44;;;8.78;75.43
16595;BME280;8410;52.532;13.336;2023-12-14T11:25:58;101048.53;;;8.28;76.80
16595;BME280;8410;52.532;13.336;2023-12-14T11:28:28;101025.72;;;10.30;71.98
16595;BME280;8410;52.532;13.336;2023-12-14T11:30:57;101035.56;;;9.66;69.95
16595;BME280;8410;52.532;13.336;2023-12-14T11:33:25;101041.41;;;8.83;75.28
16595;BME280;8410;52.532;13.336;2023-12-14T11:35:55;101058.38;;;8.43;74.42
16595;BME280;8410;52.532;13.336;2023-12-14T11:38:24;101055.88;;;9.54;73.19
16595;BME280;8410;52.532;13.336;2023-12-14T11:40:52;101057.50;;;9.91;71.63
16595;BME280;8410;52.532;13.336;2023-12-14T11:43:19;101060.06;;;10.32;68.79
16595;BME280;8410;52.532;13.336;2023-12-14T11:45:49;101072.31;;;9.62;73.00
16595;BME280;8410;52.532;13.336;2023-12-14T11:48:17;101071.44;;;10.01;72.39
16595;BME280;8410;52.532;13.336;2023-12-14T11:50:47;101068.28;;;10.61;70.18
16595;BME280;8410;52.532;13.336;2023-12-14T11:53:14;101076.59;;;10.95;68.98
16595;BME280;8410;52.532;13.336;2023-12-14T11:55:43;101073.88;;;10.86;68.92
16595;BME280;8410;52.532;13.336;2023-12-14T11:58:12;101077.69;;;10.15;70.21
16595;BME280;8410;52.532;13.336;2023-12-14T12:00:41;101090.13;;;9.53;70.99
16595;BME280;8410;52.532;13.336;2023-12-14T12:03:12;101094.22;;;8.73;72.95
16595;BME280;8410;52.532;13.336;2023-12-14T12:05:41;101095.25;;;8.80;74.35
16595;BME280;8410;52.532;13.336;2023-12-14T12:08:09;101091.81;;;10.81;69.67
16595;BME280;8410;52.532;13.336;2023-12-14T12:10:38;101095.44;;;10.92;67.50
16595;BME280;8410;52.532;13.336;2023-12-14T12:13:08;101103.63;;;9.83;70.41
16595;BME280;8410;52.532;13.336;2023-12-14T12:15:38;101112.25;;;9.85;71.25
16595;BME280;8410;52.532;13.336;2023-12-14T12:18:07;101113.09;;;9.84;77.06
16595;BME280;8410;52.532;13.336;2023-12-14T12:20:36;101091.81;;;12.76;82.52
16595;BME280;8410;52.532;13.336;2023-12-14T12:23:03;101100.59;;;10.92;69.59
16595;BME280;8410;52.532;13.336;2023-12-14T12:25:32;101105.16;;;9.75;71.87
16595;BME280;8410;52.532;13.336;2023-12-14T12:28:01;101099.53;;;10.32;70.74
16595;BME280;8410;52.532;13.336;2023-12-14T12:30:30;101110.63;;;9.13;74.66
16595;BME280;8410;52.532;13.336;2023-12-14T12:32:57;101120.75;;;9.43;73.46
16595;BME280;8410;52.532;13.336;2023-12-14T12:35:25;101118.16;;;9.42;74.14
16595;BME280;8410;52.532;13.336;2023-12-14T12:37:57;101122.56;;;9.47;74.77
16595;BME280;8410;52.532;13.336;2023-12-14T12:40:25;101131.66;;;8.98;74.63
16595;BME280;8410;52.532;13.336;2023-12-14T12:42:53;101134.22;;;8.98;74.87
16595;BME280;8410;52.532;13.336;2023-12-14T12:45:20;101134.50;;;9.45;74.41
16595;BME280;8410;52.532;13.336;2023-12-14T12:47:49;101132.25;;;9.99;72.88
16595;BME280;8410;52.532;13.336;2023-12-14T12:50:17;101132.19;;;9.96;72.29
16595;BME280;8410;52.532;13.336;2023-12-14T12:52:44;101134.59;;;10.27;71.41
16595;BME280;8410;52.532;13.336;2023-12-14T12:55:16;101141.72;;;9.62;73.23
16595;BME280;8410;52.532;13.336;2023-12-14T12:57:44;101144.72;;;9.42;72.64
16595;BME280;8410;52.532;13.336;2023-12-14T13:00:14;101151.81;;;8.83;75.15
16595;BME280;8410;52.532;13.336;2023-12-14T13:02:43;101154.09;;;9.05;75.54
16595;BME280;8410;52.532;13.336;2023-12-14T13:05:11;101148.88;;;9.75;73.75
16595;BME280;8410;52.532;13.336;2023-12-14T13:07:44;101160.44;;;9.55;73.11
16595;BME280;8410;52.532;13.336;2023-12-14T13:10:13;101162.34;;;9.63;73.74
16595;BME280;8410;52.532;13.336;2023-12-14T13:12:57;101173.28;;;9.20;75.10